sensor_id;sensor_type;location;lat;lon;timestamp;P1;durP1;ratioP1;P2;durP2;ratioP2
26588;SDS011;14235;48.532;8.722;2023-08-30T00:00:42;4.55;;;4.25;;
26588;SDS011;14235;48.532;8.722;2023-08-30T00:03:10;5.20;;;4.80;;
26588;SDS011;14235;48.532;8.722;2023-08-30T00:05:38;5.20;;;4.65;;
26588;SDS011;14235;48.532;8.722;2023-08-30T00:08:05;4.53;;;4.22;;
26588;SDS011;14235;48.532;8.722;2023-08-30T00:10:31;5.95;;;5.15;;
26588;SDS011;14235;48.532;8.722;2023-08-30T00:12:56;6.82;;;4.90;;
26588;SDS011;14235;48.532;8.722;2023-08-30T00:15:22;5.93;;;5.28;;
26588;SDS011;14235;48.532;8.722;2023-08-30T00:17:49;5.68;;;5.15;;
26588;SDS011;14235;48.532;8.722;2023-08-30T00:20:17;7.00;;;5.45;;
26588;SDS011;14235;48.532;8.722;2023-08-30T00:22:43;6.30;;;5.10;;
26588;SDS011;14235;48.532;8.722;2023-08-30T00:25:09;6.55;;;5.50;;
26588;SDS011;14235;48.532;8.722;2023-08-30T00:27:35;8.05;;;5.63;;
26588;SDS011;14235;48.532;8.722;2023-08-30T00:30:01;5.82;;;5.35;;
26588;SDS011;14235;48.532;8.722;2023-08-30T00:32:27;5.07;;;4.68;;
26588;SDS011;14235;48.532;8.722;2023-08-30T00:34:53;6.53;;;4.70;;
26588;SDS011;14235;48.532;8.722;2023-08-30T00:37:19;6.22;;;5.70;;
26588;SDS011;14235;48.532;8.722;2023-08-30T00:39:45;7.53;;;5.57;;
26588;SDS011;14235;48.532;8.722;2023-08-30T00:42:11;6.28;;;5.50;;
26588;SDS011;14235;48.532;8.722;2023-08-30T00:44:37;6.25;;;5.65;;
26588;SDS011;14235;48.532;8.722;2023-08-30T00:47:03;8.48;;;6.03;;
26588;SDS011;14235;48.532;8.722;2023-08-30T00:49:32;6.53;;;5.88;;
26588;SDS011;14235;48.532;8.722;2023-08-30T00:52:01;6.00;;;5.50;;
26588;SDS011;14235;48.532;8.722;2023-08-30T00:54:30;6.65;;;5.38;;
26588;SDS011;14235;48.532;8.722;2023-08-30T00:56:56;6.10;;;5.60;;
26588;SDS011;14235;48.532;8.722;2023-08-30T00:59:22;6.75;;;5.55;;
26588;SDS011;14235;48.532;8.722;2023-08-30T01:01:49;9.02;;;5.45;;
26588;SDS011;14235;48.532;8.722;2023-08-30T01:04:15;5.93;;;5.28;;
26588;SDS011;14235;48.532;8.722;2023-08-30T01:06:41;7.03;;;5.20;;
26588;SDS011;14235;48.532;8.722;2023-08-30T01:09:07;5.72;;;5.32;;
26588;SDS011;14235;48.532;8.722;2023-08-30T01:14:02;5.45;;;5.03;;
26588;SDS011;14235;48.532;8.722;2023-08-30T01:16:30;5.00;;;4.60;;
26588;SDS011;14235;48.532;8.722;2023-08-30T01:18:56;5.47;;;4.90;;
26588;SDS011;14235;48.532;8.722;2023-08-30T01:24:09;5.90;;;5.40;;
26588;SDS011;14235;48.532;8.722;2023-08-30T01:29:22;5.75;;;5.35;;
26588;SDS011;14235;48.532;8.722;2023-08-30T01:31:49;7.03;;;5.43;;
26588;SDS011;14235;48.532;8.722;2023-08-30T01:34:16;8.90;;;6.00;;
26588;SDS011;14235;48.532;8.722;2023-08-30T01:36:42;6.80;;;6.20;;
26588;SDS011;14235;48.532;8.722;2023-08-30T01:39:09;8.43;;;5.75;;
26588;SDS011;14235;48.532;8.722;2023-08-30T01:41:36;7.18;;;6.47;;
26588;SDS011;14235;48.532;8.722;2023-08-30T01:44:03;8.90;;;6.10;;
26588;SDS011;14235;48.532;8.722;2023-08-30T01:46:32;14.10;;;6.30;;
26588;SDS011;14235;48.532;8.722;2023-08-30T01:49:01;12.60;;;6.15;;
26588;SDS011;14235;48.532;8.722;2023-08-30T01:51:28;17.38;;;5.78;;
26588;SDS011;14235;48.532;8.722;2023-08-30T01:53:54;15.77;;;6.05;;
26588;SDS011;14235;48.532;8.722;2023-08-30T01:56:23;16.70;;;6.10;;
26588;SDS011;14235;48.532;8.722;2023-08-30T01:58:49;6.70;;;6.03;;
26588;SDS011;14235;48.532;8.722;2023-08-30T02:01:15;10.82;;;6.75;;
26588;SDS011;14235;48.532;8.722;2023-08-30T02:03:43;8.77;;;6.22;;
26588;SDS011;14235;48.532;8.722;2023-08-30T02:06:13;6.95;;;6.45;;
26588;SDS011;14235;48.532;8.722;2023-08-30T02:08:49;7.03;;;6.40;;
26588;SDS011;14235;48.532;8.722;2023-08-30T02:11:26;7.88;;;6.53;;
26588;SDS011;14235;48.532;8.722;2023-08-30T02:13:52;10.05;;;6.40;;
26588;SDS011;14235;48.532;8.722;2023-08-30T02:16:22;6.50;;;5.97;;
26588;SDS011;14235;48.532;8.722;2023-08-30T02:18:50;9.75;;;6.45;;
26588;SDS011;14235;48.532;8.722;2023-08-30T02:21:16;7.43;;;6.60;;
26588;SDS011;14235;48.532;8.722;2023-08-30T02:23:41;7.07;;;6.53;;
26588;SDS011;14235;48.532;8.722;2023-08-30T02:26:07;10.40;;;6.95;;
26588;SDS011;14235;48.532;8.722;2023-08-30T02:28:33;8.10;;;7.03;;
26588;SDS011;14235;48.532;8.722;2023-08-30T02:30:58;9.30;;;7.45;;
26588;SDS011;14235;48.532;8.722;2023-08-30T02:33:24;7.75;;;6.78;;
26588;SDS011;14235;48.532;8.722;2023-08-30T02:35:50;9.88;;;7.07;;
26588;SDS011;14235;48.532;8.722;2023-08-30T02:38:15;7.05;;;6.45;;
26588;SDS011;14235;48.532;8.722;2023-08-30T02:40:42;12.23;;;7.18;;
26588;SDS011;14235;48.532;8.722;2023-08-30T02:43:07;7.70;;;7.03;;
26588;SDS011;14235;48.532;8.722;2023-08-30T02:45:33;7.93;;;7.28;;
26588;SDS011;14235;48.532;8.722;2023-08-30T02:47:59;7.60;;;7.00;;
26588;SDS011;14235;48.532;8.722;2023-08-30T02:50:25;9.80;;;6.78;;
26588;SDS011;14235;48.532;8.722;2023-08-30T02:52:50;10.40;;;7.30;;
26588;SDS011;14235;48.532;8.722;2023-08-30T02:55:17;8.05;;;6.32;;
26588;SDS011;14235;48.532;8.722;2023-08-30T02:57:42;6.95;;;6.32;;
26588;SDS011;14235;48.532;8.722;2023-08-30T03:00:08;6.30;;;5.80;;
26588;SDS011;14235;48.532;8.722;2023-08-30T03:02:34;35.85;;;7.20;;
26588;SDS011;14235;48.532;8.722;2023-08-30T03:04:59;17.10;;;6.63;;
26588;SDS011;14235;48.532;8.722;2023-08-30T03:07:28;7.25;;;6.60;;
26588;SDS011;14235;48.532;8.722;2023-08-30T03:09:54;6.55;;;5.88;;
26588;SDS011;14235;48.532;8.722;2023-08-30T03:12:20;7.57;;;6.82;;
26588;SDS011;14235;48.532;8.722;2023-08-30T03:14:46;6.97;;;6.35;;
26588;SDS011;14235;48.532;8.722;2023-08-30T03:17:12;6.32;;;5.72;;
26588;SDS011;14235;48.532;8.722;2023-08-30T03:19:38;6.20;;;5.70;;
26588;SDS011;14235;48.532;8.722;2023-08-30T03:22:03;5.57;;;5.18;;
26588;SDS011;14235;48.532;8.722;2023-08-30T03:24:29;5.60;;;5.20;;
26588;SDS011;14235;48.532;8.722;2023-08-30T03:26:55;5.85;;;5.45;;
26588;SDS011;14235;48.532;8.722;2023-08-30T03:29:21;5.63;;;5.22;;
26588;SDS011;14235;48.532;8.722;2023-08-30T03:31:47;8.60;;;6.00;;
26588;SDS011;14235;48.532;8.722;2023-08-30T03:34:12;6.07;;;5.63;;
26588;SDS011;14235;48.532;8.722;2023-08-30T03:36:38;5.78;;;5.38;;
26588;SDS011;14235;48.532;8.722;2023-08-30T03:39:05;5.72;;;5.18;;
26588;SDS011;14235;48.532;8.722;2023-08-30T03:41:31;7.00;;;5.80;;
26588;SDS011;14235;48.532;8.722;2023-08-30T03:43:57;6.55;;;6.05;;
26588;SDS011;14235;48.532;8.722;2023-08-30T03:46:22;7.10;;;6.40;;
26588;SDS011;14235;48.532;8.722;2023-08-30T03:48:48;6.03;;;5.63;;
26588;SDS011;14235;48.532;8.722;2023-08-30T03:51:13;6.95;;;5.82;;
26588;SDS011;14235;48.532;8.722;2023-08-30T03:53:39;6.65;;;6.05;;
26588;SDS011;14235;48.532;8.722;2023-08-30T03:56:04;5.78;;;5.38;;
26588;SDS011;14235;48.532;8.722;2023-08-30T03:58:31;5.55;;;5.20;;
26588;SDS011;14235;48.532;8.722;2023-08-30T04:00:59;6.05;;;5.65;;
26588;SDS011;14235;48.532;8.722;2023-08-30T04:03:24;5.82;;;5.43;;
26588;SDS011;14235;48.532;8.722;2023-08-30T04:05:56;6.15;;;5.70;;
26588;SDS011;14235;48.532;8.722;2023-08-30T04:08:22;6.18;;;5.50;;
26588;SDS011;14235;48.532;8.722;2023-08-30T04:10:48;5.78;;;5.38;;
26588;SDS011;14235;48.532;8.722;2023-08-30T04:13:16;8.32;;;6.13;;
26588;SDS011;14235;48.532;8.722;2023-08-30T04:15:42;6.65;;;6.15;;
26588;SDS011;14235;48.532;8.722;2023-08-30T04:18:07;7.60;;;6.13;;
26588;SDS011;14235;48.532;8.722;2023-08-30T04:20:33;7.07;;;6.30;;
26588;SDS011;14235;48.532;8.722;2023-08-30T04:22:59;6.97;;;6.30;;
26588;SDS011;14235;48.532;8.722;2023-08-30T04:25:28;7.55;;;6.88;;
26588;SDS011;14235;48.532;8.722;2023-08-30T04:27:55;6.50;;;5.90;;
26588;SDS011;14235;48.532;8.722;2023-08-30T04:30:20;7.00;;;6.22;;
26588;SDS011;14235;48.532;8.722;2023-08-30T04:32:46;7.80;;;7.00;;
26588;SDS011;14235;48.532;8.722;2023-08-30T04:35:12;7.43;;;6.60;;
26588;SDS011;14235;48.532;8.722;2023-08-30T04:37:37;6.10;;;5.57;;
26588;SDS011;14235;48.532;8.722;2023-08-30T04:40:05;6.60;;;6.10;;
26588;SDS011;14235;48.532;8.722;2023-08-30T04:42:32;5.68;;;5.28;;
26588;SDS011;14235;48.532;8.722;2023-08-30T04:44:57;6.60;;;6.10;;
26588;SDS011;14235;48.532;8.722;2023-08-30T04:47:25;6.25;;;5.75;;
26588;SDS011;14235;48.532;8.722;2023-08-30T04:49:51;6.90;;;6.30;;
26588;SDS011;14235;48.532;8.722;2023-08-30T04:52:17;5.53;;;5.20;;
26588;SDS011;14235;48.532;8.722;2023-08-30T04:54:43;5.35;;;5.05;;
26588;SDS011;14235;48.532;8.722;2023-08-30T04:57:10;6.03;;;5.43;;
26588;SDS011;14235;48.532;8.722;2023-08-30T04:59:41;6.18;;;5.55;;
26588;SDS011;14235;48.532;8.722;2023-08-30T05:02:09;6.03;;;4.50;;
26588;SDS011;14235;48.532;8.722;2023-08-30T05:04:35;5.75;;;5.18;;
26588;SDS011;14235;48.532;8.722;2023-08-30T05:07:01;7.82;;;5.07;;
26588;SDS011;14235;48.532;8.722;2023-08-30T05:09:28;5.78;;;5.22;;
26588;SDS011;14235;48.532;8.722;2023-08-30T05:11:54;6.03;;;5.43;;
26588;SDS011;14235;48.532;8.722;2023-08-30T05:14:20;7.32;;;5.75;;
26588;SDS011;14235;48.532;8.722;2023-08-30T05:16:46;6.10;;;5.55;;
26588;SDS011;14235;48.532;8.722;2023-08-30T05:19:11;6.40;;;5.10;;
26588;SDS011;14235;48.532;8.722;2023-08-30T05:21:37;5.22;;;4.78;;
26588;SDS011;14235;48.532;8.722;2023-08-30T05:24:03;6.13;;;5.53;;
26588;SDS011;14235;48.532;8.722;2023-08-30T05:26:30;5.70;;;5.15;;
26588;SDS011;14235;48.532;8.722;2023-08-30T05:28:56;6.50;;;5.10;;
26588;SDS011;14235;48.532;8.722;2023-08-30T05:31:21;5.95;;;5.15;;
26588;SDS011;14235;48.532;8.722;2023-08-30T05:33:47;5.55;;;5.05;;
26588;SDS011;14235;48.532;8.722;2023-08-30T05:36:12;5.53;;;5.10;;
26588;SDS011;14235;48.532;8.722;2023-08-30T05:38:38;5.82;;;5.10;;
26588;SDS011;14235;48.532;8.722;2023-08-30T05:41:03;5.38;;;4.88;;
26588;SDS011;14235;48.532;8.722;2023-08-30T05:43:29;5.82;;;5.43;;
26588;SDS011;14235;48.532;8.722;2023-08-30T05:45:55;5.68;;;5.25;;
26588;SDS011;14235;48.532;8.722;2023-08-30T05:48:26;5.55;;;5.05;;
26588;SDS011;14235;48.532;8.722;2023-08-30T05:50:51;5.80;;;5.35;;
26588;SDS011;14235;48.532;8.722;2023-08-30T05:53:17;5.97;;;5.50;;
26588;SDS011;14235;48.532;8.722;2023-08-30T05:55:43;7.28;;;5.70;;
26588;SDS011;14235;48.532;8.722;2023-08-30T05:58:09;6.10;;;4.85;;
26588;SDS011;14235;48.532;8.722;2023-08-30T06:00:35;6.03;;;5.53;;
26588;SDS011;14235;48.532;8.722;2023-08-30T06:03:00;5.93;;;5.43;;
26588;SDS011;14235;48.532;8.722;2023-08-30T06:05:27;5.53;;;5.03;;
26588;SDS011;14235;48.532;8.722;2023-08-30T06:07:53;5.75;;;5.22;;
26588;SDS011;14235;48.532;8.722;2023-08-30T06:10:19;5.22;;;4.93;;
26588;SDS011;14235;48.532;8.722;2023-08-30T06:12:44;5.03;;;4.72;;
26588;SDS011;14235;48.532;8.722;2023-08-30T06:15:10;4.93;;;4.53;;
26588;SDS011;14235;48.532;8.722;2023-08-30T06:17:35;5.15;;;4.78;;
26588;SDS011;14235;48.532;8.722;2023-08-30T06:20:02;5.38;;;4.97;;
26588;SDS011;14235;48.532;8.722;2023-08-30T06:22:28;5.47;;;5.18;;
26588;SDS011;14235;48.532;8.722;2023-08-30T06:24:53;5.25;;;4.85;;
26588;SDS011;14235;48.532;8.722;2023-08-30T06:27:19;5.22;;;4.90;;
26588;SDS011;14235;48.532;8.722;2023-08-30T06:29:45;5.15;;;4.80;;
26588;SDS011;14235;48.532;8.722;2023-08-30T06:32:11;5.53;;;5.13;;
26588;SDS011;14235;48.532;8.722;2023-08-30T06:34:36;6.13;;;5.72;;
26588;SDS011;14235;48.532;8.722;2023-08-30T06:37:02;5.63;;;5.22;;
26588;SDS011;14235;48.532;8.722;2023-08-30T06:39:34;5.85;;;5.40;;
26588;SDS011;14235;48.532;8.722;2023-08-30T06:42:01;5.90;;;5.50;;
26588;SDS011;14235;48.532;8.722;2023-08-30T06:44:28;6.03;;;5.50;;
26588;SDS011;14235;48.532;8.722;2023-08-30T06:46:54;6.00;;;5.60;;
26588;SDS011;14235;48.532;8.722;2023-08-30T06:49:20;7.72;;;5.93;;
26588;SDS011;14235;48.532;8.722;2023-08-30T06:51:46;6.25;;;5.75;;
26588;SDS011;14235;48.532;8.722;2023-08-30T06:54:12;6.25;;;5.78;;
26588;SDS011;14235;48.532;8.722;2023-08-30T06:56:38;6.10;;;5.60;;
26588;SDS011;14235;48.532;8.722;2023-08-30T06:59:04;6.15;;;5.65;;
26588;SDS011;14235;48.532;8.722;2023-08-30T07:01:30;6.72;;;6.22;;
26588;SDS011;14235;48.532;8.722;2023-08-30T07:03:56;6.32;;;5.45;;
26588;SDS011;14235;48.532;8.722;2023-08-30T07:06:22;6.50;;;5.95;;
26588;SDS011;14235;48.532;8.722;2023-08-30T07:08:49;6.35;;;5.95;;
26588;SDS011;14235;48.532;8.722;2023-08-30T07:11:15;6.85;;;6.35;;
26588;SDS011;14235;48.532;8.722;2023-08-30T07:13:41;7.07;;;6.47;;
26588;SDS011;14235;48.532;8.722;2023-08-30T07:16:07;6.57;;;6.07;;
26588;SDS011;14235;48.532;8.722;2023-08-30T07:18:33;6.57;;;6.07;;
26588;SDS011;14235;48.532;8.722;2023-08-30T07:20:58;6.75;;;6.03;;
26588;SDS011;14235;48.532;8.722;2023-08-30T07:23:24;5.97;;;5.57;;
26588;SDS011;14235;48.532;8.722;2023-08-30T07:25:51;5.65;;;5.25;;
26588;SDS011;14235;48.532;8.722;2023-08-30T07:28:17;6.88;;;6.28;;
26588;SDS011;14235;48.532;8.722;2023-08-30T07:30:43;6.35;;;5.80;;
26588;SDS011;14235;48.532;8.722;2023-08-30T07:33:09;5.90;;;5.50;;
26588;SDS011;14235;48.532;8.722;2023-08-30T07:35:35;5.90;;;5.50;;
26588;SDS011;14235;48.532;8.722;2023-08-30T07:38:01;5.97;;;5.47;;
26588;SDS011;14235;48.532;8.722;2023-08-30T07:40:27;7.60;;;5.68;;
26588;SDS011;14235;48.532;8.722;2023-08-30T07:42:54;5.90;;;5.43;;
26588;SDS011;14235;48.532;8.722;2023-08-30T07:45:19;5.47;;;4.97;;
26588;SDS011;14235;48.532;8.722;2023-08-30T07:47:45;5.88;;;5.38;;
26588;SDS011;14235;48.532;8.722;2023-08-30T07:50:11;5.25;;;4.82;;
26588;SDS011;14235;48.532;8.722;2023-08-30T07:52:36;5.05;;;4.75;;
26588;SDS011;14235;48.532;8.722;2023-08-30T07:55:02;4.90;;;4.50;;
26588;SDS011;14235;48.532;8.722;2023-08-30T07:57:28;6.05;;;4.90;;
26588;SDS011;14235;48.532;8.722;2023-08-30T07:59:53;5.00;;;4.70;;
26588;SDS011;14235;48.532;8.722;2023-08-30T08:02:19;5.30;;;4.50;;
26588;SDS011;14235;48.532;8.722;2023-08-30T08:04:45;5.57;;;5.07;;
26588;SDS011;14235;48.532;8.722;2023-08-30T08:07:10;5.00;;;4.60;;
26588;SDS011;14235;48.532;8.722;2023-08-30T08:09:36;4.50;;;4.20;;
26588;SDS011;14235;48.532;8.722;2023-08-30T08:12:03;5.68;;;5.00;;
26588;SDS011;14235;48.532;8.722;2023-08-30T08:14:29;5.13;;;4.72;;
26588;SDS011;14235;48.532;8.722;2023-08-30T08:16:55;5.40;;;4.90;;
26588;SDS011;14235;48.532;8.722;2023-08-30T08:19:21;5.82;;;5.25;;
26588;SDS011;14235;48.532;8.722;2023-08-30T08:21:46;4.88;;;4.57;;
26588;SDS011;14235;48.532;8.722;2023-08-30T08:24:13;5.38;;;4.88;;
26588;SDS011;14235;48.532;8.722;2023-08-30T08:26:38;4.75;;;4.32;;
26588;SDS011;14235;48.532;8.722;2023-08-30T08:29:04;4.65;;;4.35;;
26588;SDS011;14235;48.532;8.722;2023-08-30T08:31:30;4.47;;;4.18;;
26588;SDS011;14235;48.532;8.722;2023-08-30T08:34:07;4.30;;;4.00;;
26588;SDS011;14235;48.532;8.722;2023-08-30T08:36:34;5.53;;;4.43;;
26588;SDS011;14235;48.532;8.722;2023-08-30T08:39:00;5.65;;;4.47;;
26588;SDS011;14235;48.532;8.722;2023-08-30T08:41:30;4.75;;;4.35;;
26588;SDS011;14235;48.532;8.722;2023-08-30T08:43:59;3.97;;;3.67;;
26588;SDS011;14235;48.532;8.722;2023-08-30T08:46:26;4.32;;;4.03;;
26588;SDS011;14235;48.532;8.722;2023-08-30T08:48:53;4.00;;;3.70;;
26588;SDS011;14235;48.532;8.722;2023-08-30T08:51:21;4.30;;;4.00;;
26588;SDS011;14235;48.532;8.722;2023-08-30T08:53:49;4.25;;;3.95;;
26588;SDS011;14235;48.532;8.722;2023-08-30T08:56:15;3.88;;;3.58;;
26588;SDS011;14235;48.532;8.722;2023-08-30T08:58:41;3.97;;;3.67;;
26588;SDS011;14235;48.532;8.722;2023-08-30T09:01:08;4.15;;;3.85;;
26588;SDS011;14235;48.532;8.722;2023-08-30T09:03:34;4.10;;;3.80;;
26588;SDS011;14235;48.532;8.722;2023-08-30T09:06:02;5.50;;;3.97;;
26588;SDS011;14235;48.532;8.722;2023-08-30T09:08:28;4.90;;;4.15;;
26588;SDS011;14235;48.532;8.722;2023-08-30T09:10:54;4.32;;;4.03;;
26588;SDS011;14235;48.532;8.722;2023-08-30T09:13:20;4.07;;;3.75;;
26588;SDS011;14235;48.532;8.722;2023-08-30T09:15:48;4.55;;;4.15;;
26588;SDS011;14235;48.532;8.722;2023-08-30T09:18:14;4.30;;;3.97;;
26588;SDS011;14235;48.532;8.722;2023-08-30T09:20:40;4.10;;;3.80;;
26588;SDS011;14235;48.532;8.722;2023-08-30T09:23:15;4.22;;;3.95;;
26588;SDS011;14235;48.532;8.722;2023-08-30T09:25:41;4.28;;;3.85;;
26588;SDS011;14235;48.532;8.722;2023-08-30T09:28:07;3.47;;;3.22;;
26588;SDS011;14235;48.532;8.722;2023-08-30T09:30:33;4.03;;;3.72;;
26588;SDS011;14235;48.532;8.722;2023-08-30T09:33:02;4.03;;;3.70;;
26588;SDS011;14235;48.532;8.722;2023-08-30T09:35:28;3.35;;;3.15;;
26588;SDS011;14235;48.532;8.722;2023-08-30T09:37:54;5.05;;;3.80;;
26588;SDS011;14235;48.532;8.722;2023-08-30T09:40:20;3.70;;;3.50;;
26588;SDS011;14235;48.532;8.722;2023-08-30T09:42:47;3.78;;;3.58;;
26588;SDS011;14235;48.532;8.722;2023-08-30T09:45:22;3.83;;;3.58;;
26588;SDS011;14235;48.532;8.722;2023-08-30T09:47:48;3.50;;;3.28;;
26588;SDS011;14235;48.532;8.722;2023-08-30T09:50:18;3.28;;;3.08;;
26588;SDS011;14235;48.532;8.722;2023-08-30T09:52:47;3.30;;;2.90;;
26588;SDS011;14235;48.532;8.722;2023-08-30T09:55:14;3.78;;;3.58;;
26588;SDS011;14235;48.532;8.722;2023-08-30T09:57:41;3.22;;;3.03;;
26588;SDS011;14235;48.532;8.722;2023-08-30T10:00:08;3.20;;;2.85;;
26588;SDS011;14235;48.532;8.722;2023-08-30T10:02:37;3.55;;;3.17;;
26588;SDS011;14235;48.532;8.722;2023-08-30T10:05:06;3.38;;;3.17;;
26588;SDS011;14235;48.532;8.722;2023-08-30T10:07:34;3.30;;;3.10;;
26588;SDS011;14235;48.532;8.722;2023-08-30T10:10:02;3.70;;;3.40;;
26588;SDS011;14235;48.532;8.722;2023-08-30T10:12:29;3.47;;;3.28;;
26588;SDS011;14235;48.532;8.722;2023-08-30T10:14:57;3.63;;;3.42;;
26588;SDS011;14235;48.532;8.722;2023-08-30T10:17:22;3.50;;;3.30;;
26588;SDS011;14235;48.532;8.722;2023-08-30T10:19:56;3.67;;;3.38;;
26588;SDS011;14235;48.532;8.722;2023-08-30T10:22:23;3.28;;;3.05;;
26588;SDS011;14235;48.532;8.722;2023-08-30T10:24:58;3.50;;;2.97;;
26588;SDS011;14235;48.532;8.722;2023-08-30T10:27:26;3.08;;;2.92;;
26588;SDS011;14235;48.532;8.722;2023-08-30T10:29:53;3.42;;;3.22;;
26588;SDS011;14235;48.532;8.722;2023-08-30T10:32:20;5.32;;;2.75;;
26588;SDS011;14235;48.532;8.722;2023-08-30T10:34:49;3.00;;;2.90;;
26588;SDS011;14235;48.532;8.722;2023-08-30T10:37:16;2.92;;;2.60;;
26588;SDS011;14235;48.532;8.722;2023-08-30T10:39:47;2.60;;;2.40;;
26588;SDS011;14235;48.532;8.722;2023-08-30T10:42:15;2.70;;;2.60;;
26588;SDS011;14235;48.532;8.722;2023-08-30T10:44:51;3.45;;;2.88;;
26588;SDS011;14235;48.532;8.722;2023-08-30T10:47:29;2.63;;;2.40;;
26588;SDS011;14235;48.532;8.722;2023-08-30T10:49:55;2.83;;;2.63;;
26588;SDS011;14235;48.532;8.722;2023-08-30T10:52:22;2.50;;;2.40;;
26588;SDS011;14235;48.532;8.722;2023-08-30T10:54:49;2.70;;;2.50;;
26588;SDS011;14235;48.532;8.722;2023-08-30T10:57:20;3.15;;;2.95;;
26588;SDS011;14235;48.532;8.722;2023-08-30T11:02:32;3.05;;;2.70;;
26588;SDS011;14235;48.532;8.722;2023-08-30T11:04:59;3.65;;;2.97;;
26588;SDS011;14235;48.532;8.722;2023-08-30T11:07:28;2.78;;;2.67;;
26588;SDS011;14235;48.532;8.722;2023-08-30T11:09:54;2.92;;;2.70;;
26588;SDS011;14235;48.532;8.722;2023-08-30T11:12:20;3.75;;;2.92;;
26588;SDS011;14235;48.532;8.722;2023-08-30T11:14:51;2.95;;;2.70;;
26588;SDS011;14235;48.532;8.722;2023-08-30T11:17:17;2.70;;;2.50;;
26588;SDS011;14235;48.532;8.722;2023-08-30T11:19:43;2.50;;;2.40;;
26588;SDS011;14235;48.532;8.722;2023-08-30T11:22:09;2.70;;;2.50;;
26588;SDS011;14235;48.532;8.722;2023-08-30T11:24:35;2.90;;;2.70;;
26588;SDS011;14235;48.532;8.722;2023-08-30T11:27:01;2.53;;;2.40;;
26588;SDS011;14235;48.532;8.722;2023-08-30T11:29:27;2.88;;;2.67;;
26588;SDS011;14235;48.532;8.722;2023-08-30T11:31:52;2.25;;;2.15;;
26588;SDS011;14235;48.532;8.722;2023-08-30T11:34:21;2.42;;;2.22;;
26588;SDS011;14235;48.532;8.722;2023-08-30T11:36:47;2.53;;;2.42;;
26588;SDS011;14235;48.532;8.722;2023-08-30T11:39:13;2.47;;;2.38;;
26588;SDS011;14235;48.532;8.722;2023-08-30T11:41:39;4.10;;;2.22;;
26588;SDS011;14235;48.532;8.722;2023-08-30T11:44:05;2.33;;;2.22;;
26588;SDS011;14235;48.532;8.722;2023-08-30T11:46:31;2.38;;;2.28;;
26588;SDS011;14235;48.532;8.722;2023-08-30T11:48:57;6.53;;;5.63;;
26588;SDS011;14235;48.532;8.722;2023-08-30T11:51:22;2.67;;;2.47;;
26588;SDS011;14235;48.532;8.722;2023-08-30T11:53:48;4.22;;;2.35;;
26588;SDS011;14235;48.532;8.722;2023-08-30T11:56:14;3.00;;;2.72;;
26588;SDS011;14235;48.532;8.722;2023-08-30T11:58:41;2.90;;;2.60;;
26588;SDS011;14235;48.532;8.722;2023-08-30T12:01:08;2.83;;;2.60;;
26588;SDS011;14235;48.532;8.722;2023-08-30T12:03:34;2.80;;;2.70;;
26588;SDS011;14235;48.532;8.722;2023-08-30T12:05:59;2.45;;;2.35;;
26588;SDS011;14235;48.532;8.722;2023-08-30T12:08:27;2.40;;;2.20;;
26588;SDS011;14235;48.532;8.722;2023-08-30T12:10:54;2.65;;;2.45;;
26588;SDS011;14235;48.532;8.722;2023-08-30T12:13:21;2.40;;;2.22;;
26588;SDS011;14235;48.532;8.722;2023-08-30T12:15:48;2.17;;;2.08;;
26588;SDS011;14235;48.532;8.722;2023-08-30T12:18:14;2.47;;;2.38;;
26588;SDS011;14235;48.532;8.722;2023-08-30T12:20:39;2.50;;;2.28;;
26588;SDS011;14235;48.532;8.722;2023-08-30T12:23:19;2.40;;;2.30;;
26588;SDS011;14235;48.532;8.722;2023-08-30T12:25:56;2.40;;;2.20;;
26588;SDS011;14235;48.532;8.722;2023-08-30T12:28:22;2.00;;;1.90;;
26588;SDS011;14235;48.532;8.722;2023-08-30T12:30:48;2.22;;;2.13;;
26588;SDS011;14235;48.532;8.722;2023-08-30T12:33:17;2.17;;;2.08;;
26588;SDS011;14235;48.532;8.722;2023-08-30T12:35:43;2.08;;;1.98;;
26588;SDS011;14235;48.532;8.722;2023-08-30T12:38:09;5.10;;;2.20;;
26588;SDS011;14235;48.532;8.722;2023-08-30T12:40:36;7.30;;;2.10;;
26588;SDS011;14235;48.532;8.722;2023-08-30T12:43:02;2.10;;;2.00;;
26588;SDS011;14235;48.532;8.722;2023-08-30T12:45:29;2.50;;;2.40;;
26588;SDS011;14235;48.532;8.722;2023-08-30T12:47:54;2.53;;;2.40;;
26588;SDS011;14235;48.532;8.722;2023-08-30T12:50:20;2.15;;;2.05;;
26588;SDS011;14235;48.532;8.722;2023-08-30T12:52:46;2.50;;;2.30;;
26588;SDS011;14235;48.532;8.722;2023-08-30T12:55:13;2.10;;;2.00;;
26588;SDS011;14235;48.532;8.722;2023-08-30T12:57:40;2.40;;;2.30;;
26588;SDS011;14235;48.532;8.722;2023-08-30T13:00:06;2.10;;;1.98;;
26588;SDS011;14235;48.532;8.722;2023-08-30T13:02:32;2.10;;;2.00;;
26588;SDS011;14235;48.532;8.722;2023-08-30T13:04:57;2.05;;;1.95;;
26588;SDS011;14235;48.532;8.722;2023-08-30T13:07:23;3.42;;;2.30;;
26588;SDS011;14235;48.532;8.722;2023-08-30T13:09:49;2.17;;;1.92;;
26588;SDS011;14235;48.532;8.722;2023-08-30T13:12:15;2.47;;;2.20;;
26588;SDS011;14235;48.532;8.722;2023-08-30T13:14:40;2.42;;;2.28;;
26588;SDS011;14235;48.532;8.722;2023-08-30T13:17:06;2.33;;;2.22;;
26588;SDS011;14235;48.532;8.722;2023-08-30T13:19:31;2.63;;;2.08;;
26588;SDS011;14235;48.532;8.722;2023-08-30T13:21:57;2.33;;;2.10;;
26588;SDS011;14235;48.532;8.722;2023-08-30T13:24:23;2.20;;;2.10;;
26588;SDS011;14235;48.532;8.722;2023-08-30T13:26:48;1.80;;;1.80;;
26588;SDS011;14235;48.532;8.722;2023-08-30T13:29:14;2.67;;;2.05;;
26588;SDS011;14235;48.532;8.722;2023-08-30T13:31:40;2.20;;;2.00;;
26588;SDS011;14235;48.532;8.722;2023-08-30T13:34:05;2.28;;;2.10;;
26588;SDS011;14235;48.532;8.722;2023-08-30T13:36:31;2.03;;;1.90;;
26588;SDS011;14235;48.532;8.722;2023-08-30T13:38:57;2.40;;;2.20;;
26588;SDS011;14235;48.532;8.722;2023-08-30T13:41:22;2.20;;;2.10;;
26588;SDS011;14235;48.532;8.722;2023-08-30T13:43:48;2.33;;;2.13;;
26588;SDS011;14235;48.532;8.722;2023-08-30T13:46:13;2.10;;;2.00;;
26588;SDS011;14235;48.532;8.722;2023-08-30T13:48:39;2.22;;;2.10;;
26588;SDS011;14235;48.532;8.722;2023-08-30T13:51:05;2.30;;;2.20;;
26588;SDS011;14235;48.532;8.722;2023-08-30T13:53:30;2.10;;;2.00;;
26588;SDS011;14235;48.532;8.722;2023-08-30T13:55:56;2.70;;;2.47;;
26588;SDS011;14235;48.532;8.722;2023-08-30T13:58:21;2.13;;;2.03;;
26588;SDS011;14235;48.532;8.722;2023-08-30T14:00:47;2.50;;;2.30;;
26588;SDS011;14235;48.532;8.722;2023-08-30T14:03:12;2.35;;;2.20;;
26588;SDS011;14235;48.532;8.722;2023-08-30T14:05:38;2.20;;;2.10;;
26588;SDS011;14235;48.532;8.722;2023-08-30T14:08:06;2.15;;;2.00;;
26588;SDS011;14235;48.532;8.722;2023-08-30T14:10:32;2.17;;;2.08;;
26588;SDS011;14235;48.532;8.722;2023-08-30T14:12:58;2.50;;;2.30;;
26588;SDS011;14235;48.532;8.722;2023-08-30T14:15:23;2.22;;;2.03;;
26588;SDS011;14235;48.532;8.722;2023-08-30T14:17:49;2.45;;;1.88;;
26588;SDS011;14235;48.532;8.722;2023-08-30T14:20:15;1.63;;;1.55;;
26588;SDS011;14235;48.532;8.722;2023-08-30T14:22:40;2.00;;;1.90;;
26588;SDS011;14235;48.532;8.722;2023-08-30T14:25:06;1.85;;;1.75;;
26588;SDS011;14235;48.532;8.722;2023-08-30T14:27:32;1.80;;;1.70;;
26588;SDS011;14235;48.532;8.722;2023-08-30T14:29:57;1.63;;;1.58;;
26588;SDS011;14235;48.532;8.722;2023-08-30T14:32:25;2.20;;;1.70;;
26588;SDS011;14235;48.532;8.722;2023-08-30T14:34:50;1.92;;;1.83;;
26588;SDS011;14235;48.532;8.722;2023-08-30T14:37:16;2.15;;;2.05;;
26588;SDS011;14235;48.532;8.722;2023-08-30T14:39:41;1.77;;;1.67;;
26588;SDS011;14235;48.532;8.722;2023-08-30T14:42:07;1.65;;;1.50;;
26588;SDS011;14235;48.532;8.722;2023-08-30T14:44:33;1.80;;;1.70;;
26588;SDS011;14235;48.532;8.722;2023-08-30T14:46:58;1.50;;;1.42;;
26588;SDS011;14235;48.532;8.722;2023-08-30T14:49:24;2.15;;;1.95;;
26588;SDS011;14235;48.532;8.722;2023-08-30T14:51:49;2.10;;;1.90;;
26588;SDS011;14235;48.532;8.722;2023-08-30T14:54:15;1.95;;;1.75;;